AAL8500 KPHX-KBOI
Flight info
| Callsign | AAL8500 |
|---|---|
| Flight time | 1h 51m |
| Altitude | 34000 |
| Route | QUAKY1 GCN WINEN WOOOP CRITO SPATS BROPH SPUUD4 |
| Aircraft | B738/M-SDE2E3FGHIRWXY/LB1 |
Departure
| Time | 2026-05-07 23:12 |
|---|---|
| Airport | Phoenix Sky Harbor International Airport (KPHX) |
Arrival
| Time | 2026-05-08 01:03 |
|---|---|
| Airport | Boise Air Terminal/Gowen Field (KBOI) |
| Time | Latitude | Longitude | Altitude | Speed | Heading |
|---|---|---|---|---|---|
| 2026-05-07 22:30 | 33.43758 | -111.99976 | 1123 ft | 0 kts | 89° |
| 2026-05-07 23:00 | 33.43758 | -111.99998 | 1113 ft | 4 kts | 90° |
| 2026-05-07 23:00 | 33.43758 | -112.00021 | 1116 ft | 4 kts | 54° |
| 2026-05-07 23:00 | 33.43739 | -112.00030 | 1119 ft | 3 kts | 360° |
| 2026-05-07 23:01 | 33.43713 | -112.00030 | 1118 ft | 4 kts | 360° |
| 2026-05-07 23:01 | 33.43694 | -112.00030 | 1114 ft | 0 kts | 360° |
| 2026-05-07 23:04 | 33.43721 | -112.00030 | 1119 ft | 6 kts | 0° |
| 2026-05-07 23:04 | 33.43776 | -112.00029 | 1115 ft | 10 kts | 0° |
| 2026-05-07 23:04 | 33.43849 | -112.00028 | 1118 ft | 10 kts | 0° |
| 2026-05-07 23:05 | 33.43906 | -111.99999 | 1123 ft | 10 kts | 77° |
| 2026-05-07 23:05 | 33.43904 | -111.99906 | 1123 ft | 17 kts | 89° |
| 2026-05-07 23:05 | 33.43904 | -111.99747 | 1123 ft | 19 kts | 90° |
| 2026-05-07 23:05 | 33.43903 | -111.99593 | 1123 ft | 18 kts | 90° |
| 2026-05-07 23:06 | 33.43903 | -111.99443 | 1123 ft | 18 kts | 89° |
| 2026-05-07 23:06 | 33.43904 | -111.99298 | 1123 ft | 17 kts | 90° |
| 2026-05-07 23:06 | 33.43883 | -111.99228 | 1116 ft | 7 kts | 190° |
| 2026-05-07 23:06 | 33.43831 | -111.99242 | 1118 ft | 9 kts | 176° |
| 2026-05-07 23:07 | 33.43769 | -111.99232 | 1118 ft | 9 kts | 170° |
| 2026-05-07 23:07 | 33.43688 | -111.99227 | 1119 ft | 14 kts | 180° |
| 2026-05-07 23:07 | 33.43591 | -111.99227 | 1120 ft | 14 kts | 179° |
| 2026-05-07 23:07 | 33.43487 | -111.99227 | 1118 ft | 18 kts | 181° |
| 2026-05-07 23:08 | 33.43361 | -111.99248 | 1117 ft | 18 kts | 177° |
| 2026-05-07 23:08 | 33.43243 | -111.99248 | 1120 ft | 12 kts | 181° |
| 2026-05-07 23:08 | 33.43192 | -111.99282 | 1118 ft | 0 kts | 233° |
| 2026-05-07 23:10 | 33.43179 | -111.99298 | 1120 ft | 5 kts | 223° |
| 2026-05-07 23:10 | 33.43151 | -111.99329 | 1115 ft | 6 kts | 222° |
| 2026-05-07 23:10 | 33.43118 | -111.99366 | 1121 ft | 7 kts | 227° |
| 2026-05-07 23:10 | 33.43104 | -111.99423 | 1122 ft | 8 kts | 268° |
| 2026-05-07 23:11 | 33.43104 | -111.99558 | 1123 ft | 36 kts | 269° |
| 2026-05-07 23:11 | 33.43105 | -112.00148 | 1124 ft | 104 kts | 270° |
| 2026-05-07 23:11 | 33.43106 | -112.01262 | 1123 ft | 161 kts | 270° |
| 2026-05-07 23:11 | 33.43090 | -112.02773 | 1334 ft | 193 kts | 264° |
| 2026-05-07 23:12 | 33.42789 | -112.04278 | 2253 ft | 181 kts | 253° |
| 2026-05-07 23:12 | 33.42737 | -112.05769 | 3067 ft | 184 kts | 277° |
| 2026-05-07 23:12 | 33.42908 | -112.07395 | 3430 ft | 211 kts | 277° |
| 2026-05-07 23:12 | 33.43095 | -112.09248 | 3643 ft | 236 kts | 275° |
| 2026-05-07 23:13 | 33.43229 | -112.11262 | 4143 ft | 247 kts | 273° |
| 2026-05-07 23:13 | 33.43323 | -112.13321 | 4902 ft | 250 kts | 272° |
| 2026-05-07 23:13 | 33.43398 | -112.15403 | 5804 ft | 249 kts | 272° |
| 2026-05-07 23:13 | 33.43753 | -112.17437 | 6544 ft | 255 kts | 298° |
| 2026-05-07 23:14 | 33.44936 | -112.19005 | 7295 ft | 257 kts | 329° |
| 2026-05-07 23:14 | 33.46593 | -112.19700 | 8107 ft | 256 kts | 354° |
| 2026-05-07 23:14 | 33.48361 | -112.19765 | 9010 ft | 253 kts | 2° |
| 2026-05-07 23:14 | 33.50141 | -112.19710 | 9782 ft | 257 kts | 2° |
| 2026-05-07 23:15 | 33.51919 | -112.19656 | 10510 ft | 258 kts | 2° |
| 2026-05-07 23:15 | 33.53715 | -112.19483 | 11227 ft | 262 kts | 12° |
| 2026-05-07 23:15 | 33.55556 | -112.18950 | 11505 ft | 284 kts | 15° |
| 2026-05-07 23:15 | 33.57527 | -112.18323 | 11701 ft | 307 kts | 15° |
| 2026-05-07 23:16 | 33.59680 | -112.17656 | 11874 ft | 330 kts | 16° |
| 2026-05-07 23:16 | 33.61850 | -112.16539 | 12056 ft | 350 kts | 34° |
| 2026-05-07 23:16 | 33.63710 | -112.14525 | 12226 ft | 369 kts | 45° |
| 2026-05-07 23:16 | 33.65487 | -112.12220 | 12588 ft | 380 kts | 46° |
| 2026-05-07 23:17 | 33.67282 | -112.09866 | 12955 ft | 389 kts | 46° |
| 2026-05-07 23:17 | 33.69113 | -112.07492 | 13643 ft | 389 kts | 46° |
| 2026-05-07 23:17 | 33.70969 | -112.05113 | 14302 ft | 389 kts | 45° |
| 2026-05-07 23:17 | 33.72839 | -112.02730 | 14800 ft | 393 kts | 45° |
| 2026-05-07 23:18 | 33.74970 | -112.00639 | 15144 ft | 400 kts | 28° |
| 2026-05-07 23:18 | 33.77527 | -111.99449 | 15723 ft | 400 kts | 13° |
| 2026-05-07 23:18 | 33.80278 | -111.98887 | 16340 ft | 401 kts | 9° |
| 2026-05-07 23:18 | 33.83051 | -111.98402 | 16836 ft | 404 kts | 9° |
| 2026-05-07 23:19 | 33.85849 | -111.97917 | 17320 ft | 408 kts | 10° |
| 2026-05-07 23:19 | 33.88671 | -111.97415 | 17821 ft | 410 kts | 10° |
| 2026-05-07 23:19 | 33.91474 | -111.96901 | 18295 ft | 412 kts | 11° |
| 2026-05-07 23:19 | 33.94306 | -111.96371 | 18745 ft | 414 kts | 11° |
| 2026-05-07 23:20 | 33.97174 | -111.95827 | 19138 ft | 417 kts | 11° |
| 2026-05-07 23:20 | 34.00054 | -111.95279 | 19534 ft | 419 kts | 11° |
| 2026-05-07 23:20 | 34.02946 | -111.94729 | 19952 ft | 422 kts | 11° |
| 2026-05-07 23:20 | 34.05831 | -111.94179 | 20340 ft | 425 kts | 11° |
| 2026-05-07 23:21 | 34.08772 | -111.93639 | 20720 ft | 428 kts | 9° |
| 2026-05-07 23:21 | 34.11777 | -111.93613 | 21121 ft | 434 kts | 358° |
| 2026-05-07 23:21 | 34.14767 | -111.93981 | 21516 ft | 437 kts | 356° |
| 2026-05-07 23:21 | 34.17833 | -111.94400 | 21882 ft | 440 kts | 356° |
| 2026-05-07 23:22 | 34.20854 | -111.94799 | 22227 ft | 443 kts | 357° |
| 2026-05-07 23:22 | 34.23935 | -111.95178 | 22565 ft | 445 kts | 357° |
| 2026-05-07 23:22 | 34.27032 | -111.95536 | 22931 ft | 447 kts | 357° |
| 2026-05-07 23:22 | 34.30151 | -111.95884 | 23271 ft | 449 kts | 357° |
| 2026-05-07 23:23 | 34.33272 | -111.96227 | 23581 ft | 452 kts | 357° |
| 2026-05-07 23:23 | 34.36415 | -111.96572 | 23863 ft | 453 kts | 357° |
| 2026-05-07 23:23 | 34.39524 | -111.96915 | 24163 ft | 454 kts | 357° |
| 2026-05-07 23:23 | 34.42682 | -111.97265 | 24478 ft | 455 kts | 357° |
| 2026-05-07 23:24 | 34.45846 | -111.97615 | 24763 ft | 456 kts | 357° |
| 2026-05-07 23:24 | 34.49023 | -111.97966 | 25059 ft | 457 kts | 357° |
| 2026-05-07 23:24 | 34.52155 | -111.98311 | 25363 ft | 457 kts | 357° |
| 2026-05-07 23:24 | 34.55345 | -111.98664 | 25634 ft | 459 kts | 357° |
| 2026-05-07 23:25 | 34.58538 | -111.99017 | 25901 ft | 461 kts | 357° |
| 2026-05-07 23:25 | 34.61744 | -111.99372 | 26173 ft | 462 kts | 357° |
| 2026-05-07 23:25 | 34.64922 | -111.99725 | 26506 ft | 461 kts | 357° |
| 2026-05-07 23:25 | 34.68116 | -112.00080 | 26915 ft | 459 kts | 357° |
| 2026-05-07 23:26 | 34.71257 | -112.00429 | 27346 ft | 456 kts | 357° |
| 2026-05-07 23:26 | 34.74425 | -112.00781 | 27763 ft | 454 kts | 357° |
| 2026-05-07 23:26 | 34.77573 | -112.01131 | 28132 ft | 453 kts | 357° |
| 2026-05-07 23:26 | 34.80719 | -112.01483 | 28519 ft | 452 kts | 357° |
| 2026-05-07 23:27 | 34.86970 | -112.02188 | 29347 ft | 449 kts | 357° |
| 2026-05-07 23:27 | 34.90039 | -112.02534 | 29754 ft | 447 kts | 357° |
| 2026-05-07 23:27 | 34.93133 | -112.02883 | 30132 ft | 446 kts | 357° |
| 2026-05-07 23:28 | 34.96226 | -112.03232 | 30463 ft | 445 kts | 357° |
| 2026-05-07 23:28 | 34.99318 | -112.03581 | 30784 ft | 444 kts | 357° |
| 2026-05-07 23:28 | 35.02394 | -112.03928 | 31037 ft | 444 kts | 357° |
| 2026-05-07 23:28 | 35.05483 | -112.04277 | 31350 ft | 443 kts | 357° |
| 2026-05-07 23:29 | 35.08508 | -112.04620 | 31714 ft | 442 kts | 357° |
| 2026-05-07 23:29 | 35.11572 | -112.04967 | 32027 ft | 441 kts | 357° |
| 2026-05-07 23:29 | 35.14633 | -112.05314 | 32314 ft | 441 kts | 357° |
| 2026-05-07 23:29 | 35.17698 | -112.05661 | 32709 ft | 440 kts | 357° |
| 2026-05-07 23:30 | 35.20736 | -112.06006 | 33097 ft | 437 kts | 357° |
| 2026-05-07 23:30 | 35.23727 | -112.06346 | 33453 ft | 436 kts | 357° |
| 2026-05-07 23:30 | 35.26746 | -112.06689 | 33719 ft | 436 kts | 357° |
| 2026-05-07 23:30 | 35.29773 | -112.07033 | 33989 ft | 436 kts | 357° |
| 2026-05-07 23:31 | 35.32811 | -112.07379 | 34168 ft | 437 kts | 357° |
| 2026-05-07 23:31 | 35.35848 | -112.07725 | 34152 ft | 438 kts | 357° |
| 2026-05-07 23:31 | 35.41880 | -112.08348 | 34129 ft | 434 kts | 357° |
| 2026-05-07 23:32 | 35.47886 | -112.08929 | 34107 ft | 431 kts | 357° |
| 2026-05-07 23:32 | 35.53861 | -112.09525 | 34083 ft | 429 kts | 357° |
| 2026-05-07 23:33 | 35.59756 | -112.10213 | 34013 ft | 428 kts | 356° |
| 2026-05-07 23:33 | 35.65703 | -112.10945 | 34007 ft | 428 kts | 356° |
| 2026-05-07 23:34 | 35.71653 | -112.11667 | 34009 ft | 430 kts | 356° |
| 2026-05-07 23:34 | 35.77594 | -112.12382 | 34005 ft | 432 kts | 356° |
| 2026-05-07 23:35 | 35.83615 | -112.13106 | 33992 ft | 435 kts | 356° |
| 2026-05-07 23:35 | 35.86630 | -112.13469 | 34173 ft | 436 kts | 356° |
| 2026-05-07 23:35 | 35.89662 | -112.13834 | 34175 ft | 436 kts | 356° |
| 2026-05-07 23:36 | 35.95668 | -112.14697 | 34163 ft | 439 kts | 347° |
| 2026-05-07 23:36 | 35.98517 | -112.16085 | 34195 ft | 442 kts | 335° |
| 2026-05-07 23:36 | 36.01241 | -112.17886 | 34175 ft | 444 kts | 334° |
| 2026-05-07 23:37 | 36.06617 | -112.21576 | 34147 ft | 444 kts | 334° |
| 2026-05-07 23:37 | 36.12027 | -112.25272 | 34116 ft | 443 kts | 334° |
| 2026-05-07 23:38 | 36.17443 | -112.28927 | 34087 ft | 442 kts | 334° |
| 2026-05-07 23:38 | 36.22815 | -112.32536 | 34045 ft | 440 kts | 334° |
| 2026-05-07 23:39 | 36.28200 | -112.36153 | 33993 ft | 439 kts | 334° |
| 2026-05-07 23:39 | 36.33566 | -112.39763 | 34007 ft | 439 kts | 334° |
| 2026-05-07 23:40 | 36.38941 | -112.43385 | 34013 ft | 439 kts | 334° |
| 2026-05-07 23:40 | 36.44295 | -112.47000 | 33982 ft | 440 kts | 334° |
| 2026-05-07 23:41 | 36.49681 | -112.50642 | 33984 ft | 440 kts | 334° |
| 2026-05-07 23:41 | 36.55045 | -112.54276 | 33975 ft | 441 kts | 334° |
| 2026-05-07 23:42 | 36.60457 | -112.57948 | 33978 ft | 442 kts | 334° |
| 2026-05-07 23:42 | 36.65832 | -112.61601 | 33962 ft | 442 kts | 334° |
| 2026-05-07 23:43 | 36.71244 | -112.65284 | 33960 ft | 441 kts | 333° |
| 2026-05-07 23:43 | 36.76596 | -112.68934 | 33973 ft | 440 kts | 333° |
| 2026-05-07 23:44 | 36.81968 | -112.72603 | 33998 ft | 439 kts | 333° |
| 2026-05-07 23:44 | 36.87304 | -112.76252 | 34026 ft | 438 kts | 333° |
| 2026-05-07 23:45 | 36.91760 | -112.79305 | 34041 ft | 438 kts | 333° |
| 2026-05-07 23:45 | 36.97101 | -112.82968 | 34071 ft | 437 kts | 333° |
| 2026-05-07 23:46 | 37.02405 | -112.86612 | 34074 ft | 437 kts | 333° |
| 2026-05-07 23:46 | 37.07747 | -112.90288 | 34072 ft | 438 kts | 333° |
| 2026-05-07 23:47 | 37.13099 | -112.93978 | 34050 ft | 438 kts | 333° |
| 2026-05-07 23:47 | 37.18449 | -112.97672 | 34015 ft | 438 kts | 333° |
| 2026-05-07 23:48 | 37.23768 | -113.01350 | 33976 ft | 438 kts | 333° |
| 2026-05-07 23:48 | 37.29116 | -113.05055 | 33937 ft | 438 kts | 332° |
| 2026-05-07 23:49 | 37.34435 | -113.08745 | 33969 ft | 438 kts | 332° |
| 2026-05-07 23:49 | 37.39788 | -113.12466 | 33975 ft | 439 kts | 332° |
| 2026-05-07 23:50 | 37.45111 | -113.16171 | 34017 ft | 440 kts | 332° |
| 2026-05-07 23:50 | 37.50470 | -113.19908 | 34043 ft | 438 kts | 332° |
| 2026-05-07 23:51 | 37.55788 | -113.23622 | 34037 ft | 437 kts | 332° |
| 2026-05-07 23:51 | 37.61090 | -113.27331 | 34052 ft | 436 kts | 332° |
| 2026-05-07 23:52 | 37.66413 | -113.31061 | 34039 ft | 436 kts | 332° |
| 2026-05-07 23:52 | 37.71685 | -113.34761 | 34027 ft | 435 kts | 332° |
| 2026-05-07 23:53 | 37.76979 | -113.38484 | 33999 ft | 435 kts | 332° |
| 2026-05-07 23:53 | 37.82241 | -113.42190 | 33963 ft | 435 kts | 332° |
| 2026-05-07 23:54 | 37.87549 | -113.45934 | 33913 ft | 435 kts | 332° |
| 2026-05-07 23:54 | 37.92800 | -113.49644 | 33910 ft | 435 kts | 332° |
| 2026-05-07 23:55 | 37.97999 | -113.53595 | 33920 ft | 435 kts | 328° |
| 2026-05-07 23:55 | 38.03073 | -113.57731 | 33925 ft | 435 kts | 328° |
| 2026-05-07 23:56 | 38.08169 | -113.61859 | 33925 ft | 434 kts | 329° |
| 2026-05-07 23:56 | 38.13292 | -113.65971 | 33936 ft | 434 kts | 329° |
| 2026-05-07 23:57 | 38.18403 | -113.70069 | 33938 ft | 434 kts | 329° |
| 2026-05-07 23:57 | 38.23487 | -113.74154 | 33939 ft | 434 kts | 329° |
| 2026-05-07 23:58 | 38.28593 | -113.78263 | 33941 ft | 434 kts | 329° |
| 2026-05-07 23:58 | 38.33719 | -113.82270 | 33949 ft | 434 kts | 330° |
| 2026-05-07 23:59 | 38.38954 | -113.86130 | 33949 ft | 434 kts | 331° |
| 2026-05-07 23:59 | 38.44198 | -113.89996 | 33947 ft | 435 kts | 331° |
| 2026-05-08 00:00 | 38.49408 | -113.93873 | 33943 ft | 435 kts | 330° |
| 2026-05-08 00:00 | 38.54640 | -113.97790 | 33943 ft | 436 kts | 330° |
| 2026-05-08 00:01 | 38.59883 | -114.01726 | 33958 ft | 435 kts | 330° |
| 2026-05-08 00:01 | 38.65084 | -114.05635 | 33941 ft | 435 kts | 330° |
| 2026-05-08 00:02 | 38.70312 | -114.09572 | 33931 ft | 435 kts | 330° |
| 2026-05-08 00:02 | 38.75495 | -114.13481 | 33937 ft | 434 kts | 330° |
| 2026-05-08 00:03 | 38.80699 | -114.17411 | 33936 ft | 433 kts | 330° |
| 2026-05-08 00:03 | 38.85869 | -114.21324 | 33925 ft | 432 kts | 330° |
| 2026-05-08 00:04 | 38.91057 | -114.25257 | 33936 ft | 432 kts | 330° |
| 2026-05-08 00:04 | 38.96219 | -114.29177 | 33955 ft | 432 kts | 330° |
| 2026-05-08 00:05 | 39.01367 | -114.33093 | 33955 ft | 431 kts | 330° |
| 2026-05-08 00:05 | 39.06525 | -114.37024 | 33948 ft | 431 kts | 330° |
| 2026-05-08 00:06 | 39.11667 | -114.40949 | 33945 ft | 431 kts | 330° |
| 2026-05-08 00:06 | 39.16839 | -114.44904 | 33979 ft | 431 kts | 329° |
| 2026-05-08 00:07 | 39.22006 | -114.48862 | 34003 ft | 431 kts | 329° |
| 2026-05-08 00:07 | 39.27173 | -114.52706 | 34019 ft | 430 kts | 335° |
| 2026-05-08 00:08 | 39.32877 | -114.54973 | 34043 ft | 430 kts | 349° |
| 2026-05-08 00:08 | 39.38878 | -114.55491 | 33961 ft | 432 kts | 356° |
| 2026-05-08 00:09 | 39.44868 | -114.55671 | 33949 ft | 433 kts | 356° |
| 2026-05-08 00:09 | 39.50909 | -114.55870 | 33948 ft | 432 kts | 356° |
| 2026-05-08 00:10 | 39.56879 | -114.56100 | 33957 ft | 432 kts | 356° |
| 2026-05-08 00:10 | 39.62894 | -114.56345 | 33949 ft | 431 kts | 356° |
| 2026-05-08 00:11 | 39.68893 | -114.56592 | 33953 ft | 431 kts | 356° |
| 2026-05-08 00:11 | 39.74907 | -114.56840 | 33962 ft | 431 kts | 355° |
| 2026-05-08 00:12 | 39.80882 | -114.57087 | 33956 ft | 431 kts | 355° |
| 2026-05-08 00:12 | 39.86896 | -114.57335 | 33957 ft | 431 kts | 355° |
| 2026-05-08 00:13 | 39.92902 | -114.57583 | 33962 ft | 431 kts | 355° |
| 2026-05-08 00:13 | 39.98870 | -114.57830 | 33955 ft | 431 kts | 355° |
| 2026-05-08 00:14 | 40.04876 | -114.58079 | 33959 ft | 432 kts | 355° |
| 2026-05-08 00:14 | 40.10893 | -114.58329 | 33960 ft | 432 kts | 355° |
| 2026-05-08 00:15 | 40.16889 | -114.58579 | 33960 ft | 432 kts | 355° |
| 2026-05-08 00:15 | 40.22915 | -114.58830 | 33963 ft | 432 kts | 355° |
| 2026-05-08 00:16 | 40.28884 | -114.59079 | 33963 ft | 432 kts | 355° |
| 2026-05-08 00:16 | 40.34904 | -114.59331 | 33969 ft | 432 kts | 355° |
| 2026-05-08 00:17 | 40.40932 | -114.59584 | 33957 ft | 433 kts | 355° |
| 2026-05-08 00:17 | 40.46935 | -114.59836 | 33955 ft | 432 kts | 355° |
| 2026-05-08 00:18 | 40.52928 | -114.60088 | 33963 ft | 432 kts | 355° |
| 2026-05-08 00:18 | 40.58955 | -114.60342 | 33949 ft | 432 kts | 355° |
| 2026-05-08 00:19 | 40.64929 | -114.60594 | 33956 ft | 431 kts | 355° |
| 2026-05-08 00:19 | 40.70961 | -114.60850 | 33954 ft | 432 kts | 355° |
| 2026-05-08 00:20 | 40.76942 | -114.61217 | 33949 ft | 430 kts | 352° |
| 2026-05-08 00:20 | 40.82891 | -114.61988 | 33960 ft | 429 kts | 351° |
| 2026-05-08 00:21 | 40.88803 | -114.62828 | 33950 ft | 429 kts | 351° |
| 2026-05-08 00:21 | 40.94739 | -114.63641 | 33956 ft | 428 kts | 351° |
| 2026-05-08 00:22 | 41.00640 | -114.64426 | 33947 ft | 427 kts | 351° |
| 2026-05-08 00:22 | 41.06569 | -114.65207 | 33944 ft | 427 kts | 351° |
| 2026-05-08 00:23 | 41.12475 | -114.65985 | 33957 ft | 426 kts | 351° |
| 2026-05-08 00:23 | 41.18348 | -114.66760 | 33946 ft | 425 kts | 351° |
| 2026-05-08 00:24 | 41.24246 | -114.67541 | 33945 ft | 425 kts | 351° |
| 2026-05-08 00:24 | 41.30098 | -114.68317 | 33954 ft | 424 kts | 351° |
| 2026-05-08 00:25 | 41.35976 | -114.69099 | 33947 ft | 424 kts | 351° |
| 2026-05-08 00:25 | 41.41822 | -114.69877 | 33940 ft | 424 kts | 351° |
| 2026-05-08 00:26 | 41.47705 | -114.70662 | 33949 ft | 424 kts | 351° |
| 2026-05-08 00:26 | 41.53591 | -114.71448 | 33948 ft | 424 kts | 351° |
| 2026-05-08 00:27 | 41.59432 | -114.72230 | 33940 ft | 424 kts | 351° |
| 2026-05-08 00:27 | 41.65320 | -114.73020 | 33942 ft | 424 kts | 351° |
| 2026-05-08 00:28 | 41.71187 | -114.73808 | 33943 ft | 424 kts | 350° |
| 2026-05-08 00:28 | 41.77025 | -114.74594 | 33945 ft | 423 kts | 350° |
| 2026-05-08 00:29 | 41.82901 | -114.75386 | 33936 ft | 423 kts | 350° |
| 2026-05-08 00:29 | 41.88726 | -114.76173 | 33947 ft | 422 kts | 350° |
| 2026-05-08 00:30 | 41.94589 | -114.76966 | 33942 ft | 422 kts | 350° |
| 2026-05-08 00:30 | 42.00403 | -114.77755 | 33942 ft | 422 kts | 350° |
| 2026-05-08 00:31 | 42.06256 | -114.78550 | 33933 ft | 422 kts | 350° |
| 2026-05-08 00:31 | 42.12123 | -114.79349 | 33924 ft | 422 kts | 350° |
| 2026-05-08 00:32 | 42.17943 | -114.80142 | 33940 ft | 421 kts | 350° |
| 2026-05-08 00:32 | 42.23757 | -114.80936 | 33947 ft | 422 kts | 350° |
| 2026-05-08 00:33 | 42.29603 | -114.81736 | 33942 ft | 421 kts | 350° |
| 2026-05-08 00:33 | 42.35401 | -114.82531 | 33945 ft | 420 kts | 350° |
| 2026-05-08 00:34 | 42.40237 | -114.83196 | 33944 ft | 419 kts | 350° |
| 2026-05-08 00:34 | 42.46014 | -114.83988 | 33927 ft | 405 kts | 350° |
| 2026-05-08 00:35 | 42.48770 | -114.84361 | 33924 ft | 390 kts | 349° |
| 2026-05-08 00:35 | 42.51389 | -114.84719 | 33918 ft | 375 kts | 349° |
| 2026-05-08 00:35 | 42.53940 | -114.85070 | 33909 ft | 362 kts | 349° |
| 2026-05-08 00:35 | 42.56398 | -114.85409 | 33909 ft | 348 kts | 349° |
| 2026-05-08 00:36 | 42.58771 | -114.85739 | 33902 ft | 336 kts | 349° |
| 2026-05-08 00:36 | 42.61050 | -114.86056 | 33908 ft | 323 kts | 348° |
| 2026-05-08 00:36 | 42.65433 | -114.86670 | 33920 ft | 318 kts | 348° |
| 2026-05-08 00:37 | 42.69923 | -114.87334 | 33931 ft | 332 kts | 343° |
| 2026-05-08 00:37 | 42.72075 | -114.88407 | 33944 ft | 329 kts | 329° |
| 2026-05-08 00:38 | 42.75571 | -114.92368 | 33915 ft | 329 kts | 314° |
| 2026-05-08 00:38 | 42.78639 | -114.96848 | 33889 ft | 319 kts | 314° |
| 2026-05-08 00:39 | 42.81678 | -115.01277 | 33918 ft | 320 kts | 314° |
| 2026-05-08 00:39 | 42.84733 | -115.05686 | 33915 ft | 323 kts | 314° |
| 2026-05-08 00:40 | 42.87843 | -115.10161 | 33921 ft | 325 kts | 314° |
| 2026-05-08 00:40 | 42.90953 | -115.14638 | 33944 ft | 327 kts | 314° |
| 2026-05-08 00:41 | 42.94077 | -115.19156 | 33930 ft | 325 kts | 314° |
| 2026-05-08 00:41 | 42.97159 | -115.23631 | 33921 ft | 323 kts | 314° |
| 2026-05-08 00:42 | 43.00215 | -115.28076 | 33915 ft | 321 kts | 314° |
| 2026-05-08 00:42 | 43.03271 | -115.32527 | 33919 ft | 319 kts | 314° |
| 2026-05-08 00:43 | 43.06284 | -115.36921 | 33919 ft | 318 kts | 314° |
| 2026-05-08 00:43 | 43.09321 | -115.41358 | 33923 ft | 319 kts | 313° |
| 2026-05-08 00:44 | 43.12345 | -115.45781 | 33920 ft | 319 kts | 313° |
| 2026-05-08 00:44 | 43.13846 | -115.47978 | 33688 ft | 314 kts | 313° |
| 2026-05-08 00:44 | 43.15337 | -115.50161 | 33226 ft | 314 kts | 313° |
| 2026-05-08 00:44 | 43.16821 | -115.52384 | 32683 ft | 318 kts | 308° |
| 2026-05-08 00:45 | 43.17813 | -115.55103 | 32171 ft | 325 kts | 287° |
| 2026-05-08 00:45 | 43.17920 | -115.58238 | 31794 ft | 336 kts | 265° |
| 2026-05-08 00:45 | 43.17111 | -115.61286 | 31445 ft | 350 kts | 245° |
| 2026-05-08 00:45 | 43.15472 | -115.63826 | 31071 ft | 366 kts | 224° |
| 2026-05-08 00:46 | 43.13182 | -115.65488 | 30703 ft | 381 kts | 203° |
| 2026-05-08 00:46 | 43.10606 | -115.66260 | 30400 ft | 385 kts | 194° |
| 2026-05-08 00:46 | 43.07945 | -115.66697 | 30084 ft | 388 kts | 184° |
| 2026-05-08 00:46 | 43.05258 | -115.66131 | 29664 ft | 395 kts | 162° |
| 2026-05-08 00:47 | 43.02859 | -115.64388 | 29294 ft | 396 kts | 142° |
| 2026-05-08 00:47 | 43.00818 | -115.61868 | 28982 ft | 391 kts | 134° |
| 2026-05-08 00:47 | 42.98921 | -115.59221 | 28613 ft | 390 kts | 133° |
| 2026-05-08 00:47 | 42.97053 | -115.56549 | 28229 ft | 388 kts | 133° |
| 2026-05-08 00:48 | 42.95199 | -115.53868 | 27889 ft | 385 kts | 129° |
| 2026-05-08 00:48 | 42.93871 | -115.50762 | 27503 ft | 375 kts | 101° |
| 2026-05-08 00:48 | 42.93631 | -115.47357 | 27079 ft | 362 kts | 77° |
| 2026-05-08 00:48 | 42.94406 | -115.44093 | 25964 ft | 366 kts | 52° |
| 2026-05-08 00:49 | 42.96168 | -115.41545 | 24678 ft | 377 kts | 28° |
| 2026-05-08 00:49 | 42.98617 | -115.40213 | 23451 ft | 389 kts | 9° |
| 2026-05-08 00:49 | 43.01357 | -115.39630 | 22098 ft | 404 kts | 5° |
| 2026-05-08 00:49 | 43.04147 | -115.39372 | 21132 ft | 409 kts | 358° |
| 2026-05-08 00:50 | 43.06949 | -115.39841 | 20484 ft | 402 kts | 341° |
| 2026-05-08 00:50 | 43.09399 | -115.41572 | 19947 ft | 394 kts | 320° |
| 2026-05-08 00:50 | 43.11341 | -115.44192 | 19457 ft | 388 kts | 313° |
| 2026-05-08 00:50 | 43.13162 | -115.46907 | 18890 ft | 385 kts | 312° |
| 2026-05-08 00:51 | 43.14926 | -115.49562 | 18176 ft | 378 kts | 312° |
| 2026-05-08 00:51 | 43.16711 | -115.52220 | 17223 ft | 376 kts | 312° |
| 2026-05-08 00:51 | 43.18488 | -115.54829 | 16395 ft | 371 kts | 313° |
| 2026-05-08 00:51 | 43.20242 | -115.57385 | 15572 ft | 363 kts | 313° |
| 2026-05-08 00:52 | 43.21962 | -115.59885 | 14729 ft | 358 kts | 313° |
| 2026-05-08 00:52 | 43.23664 | -115.62360 | 13856 ft | 354 kts | 312° |
| 2026-05-08 00:52 | 43.25314 | -115.64783 | 12964 ft | 349 kts | 312° |
| 2026-05-08 00:52 | 43.26961 | -115.67205 | 12055 ft | 344 kts | 312° |
| 2026-05-08 00:53 | 43.28632 | -115.69536 | 11145 ft | 340 kts | 315° |
| 2026-05-08 00:53 | 43.30360 | -115.71740 | 10351 ft | 336 kts | 316° |
| 2026-05-08 00:53 | 43.32017 | -115.73818 | 10164 ft | 314 kts | 316° |
| 2026-05-08 00:53 | 43.33576 | -115.75789 | 10019 ft | 293 kts | 315° |
| 2026-05-08 00:54 | 43.35011 | -115.77621 | 9899 ft | 274 kts | 315° |
| 2026-05-08 00:54 | 43.36366 | -115.79357 | 9764 ft | 258 kts | 315° |
| 2026-05-08 00:54 | 43.37665 | -115.81026 | 9348 ft | 253 kts | 316° |
| 2026-05-08 00:54 | 43.38879 | -115.82774 | 8868 ft | 252 kts | 309° |
| 2026-05-08 00:55 | 43.39975 | -115.84653 | 8396 ft | 251 kts | 308° |
| 2026-05-08 00:55 | 43.41038 | -115.86493 | 8164 ft | 242 kts | 308° |
| 2026-05-08 00:55 | 43.42083 | -115.88279 | 7891 ft | 238 kts | 309° |
| 2026-05-08 00:55 | 43.43112 | -115.90025 | 7801 ft | 231 kts | 309° |
| 2026-05-08 00:56 | 43.44107 | -115.91707 | 7718 ft | 222 kts | 309° |
| 2026-05-08 00:56 | 43.45014 | -115.93394 | 7530 ft | 217 kts | 305° |
| 2026-05-08 00:56 | 43.45858 | -115.95067 | 7359 ft | 210 kts | 305° |
| 2026-05-08 00:56 | 43.46657 | -115.96655 | 7234 ft | 196 kts | 305° |
| 2026-05-08 00:57 | 43.47435 | -115.98193 | 6968 ft | 194 kts | 305° |
| 2026-05-08 00:57 | 43.48206 | -115.99714 | 6676 ft | 193 kts | 305° |
| 2026-05-08 00:57 | 43.48959 | -116.01195 | 6440 ft | 186 kts | 305° |
| 2026-05-08 00:57 | 43.49625 | -116.02623 | 6353 ft | 172 kts | 299° |
| 2026-05-08 00:58 | 43.50148 | -116.04119 | 6005 ft | 175 kts | 297° |
| 2026-05-08 00:58 | 43.50299 | -116.04566 | 5899 ft | 176 kts | 297° |
| 2026-05-08 01:00 | 43.50592 | -116.05434 | 5731 ft | 176 kts | 297° |
| 2026-05-08 01:00 | 43.51102 | -116.06937 | 5457 ft | 170 kts | 297° |
| 2026-05-08 01:00 | 43.51603 | -116.08424 | 5047 ft | 172 kts | 298° |
| 2026-05-08 01:01 | 43.52098 | -116.09880 | 4710 ft | 165 kts | 297° |
| 2026-05-08 01:01 | 43.52571 | -116.11270 | 4427 ft | 157 kts | 300° |
| 2026-05-08 01:01 | 43.53032 | -116.12622 | 4203 ft | 155 kts | 299° |
| 2026-05-08 01:01 | 43.53489 | -116.13961 | 3984 ft | 152 kts | 298° |
| 2026-05-08 01:02 | 43.53945 | -116.15295 | 3776 ft | 154 kts | 298° |
| 2026-05-08 01:02 | 43.54391 | -116.16595 | 3585 ft | 149 kts | 298° |
| 2026-05-08 01:02 | 43.54824 | -116.17868 | 3363 ft | 145 kts | 297° |
| 2026-05-08 01:02 | 43.55243 | -116.19102 | 3170 ft | 141 kts | 297° |
| 2026-05-08 01:03 | 43.55680 | -116.20382 | 2988 ft | 152 kts | 298° |
| 2026-05-08 01:03 | 43.56123 | -116.21690 | 2881 ft | 146 kts | 299° |
| 2026-05-08 01:03 | 43.56492 | -116.22731 | 2883 ft | 95 kts | 295° |
| 2026-05-08 01:03 | 43.56684 | -116.23319 | 2880 ft | 33 kts | 292° |
| 2026-05-08 01:04 | 43.56770 | -116.23566 | 2881 ft | 28 kts | 297° |
| 2026-05-08 01:04 | 43.56852 | -116.23797 | 2883 ft | 26 kts | 297° |
| 2026-05-08 01:04 | 43.56926 | -116.24015 | 2883 ft | 24 kts | 289° |
| 2026-05-08 01:04 | 43.56974 | -116.24175 | 2881 ft | 7 kts | 310° |
| 2026-05-08 01:05 | 43.57018 | -116.24169 | 2882 ft | 7 kts | 26° |
| 2026-05-08 01:05 | 43.57051 | -116.24125 | 2881 ft | 7 kts | 59° |
| 2026-05-08 01:05 | 43.57064 | -116.24065 | 2881 ft | 6 kts | 77° |
| 2026-05-08 01:05 | 43.57075 | -116.23996 | 2881 ft | 9 kts | 77° |
| 2026-05-08 01:06 | 43.57090 | -116.23913 | 2881 ft | 9 kts | 79° |
| 2026-05-08 01:06 | 43.57100 | -116.23811 | 2881 ft | 13 kts | 82° |
| 2026-05-08 01:06 | 43.57112 | -116.23686 | 2881 ft | 13 kts | 84° |
| 2026-05-08 01:06 | 43.57100 | -116.23566 | 2881 ft | 13 kts | 116° |
| 2026-05-08 01:07 | 43.57061 | -116.23458 | 2880 ft | 12 kts | 116° |
| 2026-05-08 01:07 | 43.57025 | -116.23352 | 2880 ft | 12 kts | 115° |
| 2026-05-08 01:07 | 43.56990 | -116.23248 | 2880 ft | 12 kts | 115° |
| 2026-05-08 01:07 | 43.56957 | -116.23147 | 2880 ft | 11 kts | 114° |
| 2026-05-08 01:08 | 43.56926 | -116.23052 | 2880 ft | 9 kts | 117° |
| 2026-05-08 01:08 | 43.56897 | -116.22974 | 2880 ft | 9 kts | 116° |
| 2026-05-08 01:08 | 43.56855 | -116.22851 | 2880 ft | 16 kts | 115° |
| 2026-05-08 01:08 | 43.56807 | -116.22711 | 2880 ft | 16 kts | 115° |
| 2026-05-08 01:09 | 43.56762 | -116.22578 | 2880 ft | 15 kts | 115° |
| 2026-05-08 01:09 | 43.56718 | -116.22449 | 2880 ft | 15 kts | 116° |
| 2026-05-08 01:09 | 43.56668 | -116.22307 | 2880 ft | 16 kts | 114° |
| 2026-05-08 01:09 | 43.56654 | -116.22191 | 2880 ft | 12 kts | 64° |
| 2026-05-08 01:10 | 43.56676 | -116.22167 | 2880 ft | 0 kts | 18° |
| 2026-05-08 01:10 | 43.56677 | -116.22167 | 2880 ft | 0 kts | 20° |
| 2026-05-08 01:11 | 43.56682 | -116.22167 | 2880 ft | 2 kts | 4° |
| 2026-05-08 01:11 | 43.56683 | -116.22167 | 2880 ft | 0 kts | 4° |
| 2026-05-08 01:12 | 43.56686 | -116.22167 | 2880 ft | 1 kts | 4° |
| 2026-05-08 01:12 | 43.56698 | -116.22165 | 2880 ft | 3 kts | 4° |
| 2026-05-08 01:12 | 43.56720 | -116.22167 | 2880 ft | 3 kts | 347° |
| 2026-05-08 01:12 | 43.56740 | -116.22179 | 2880 ft | 3 kts | 333° |
| 2026-05-08 01:13 | 43.56755 | -116.22190 | 2880 ft | 0 kts | 332° |